Time;durP1;ratioP1;P1;durP2;ratioP2;P2;SDS_P1;SDS_P2;PMS_P1;PMS_P2;Temp;Humidity;BMP_temperature;BMP_pressure;BME280_temperature;BME280_humidity;BME280_pressure;Samples;Min_cycle;Max_cycle;Signal;HPM_P1;HPM_P2
2024/02/02 00:01:51;;;;;;;11.18;4.88;;;;;;;6.20;45.99;102802.38;5017894;28;20468;-74
2024/02/02 00:04:20;;;;;;;13.23;5.07;;;;;;;6.24;45.88;102805.88;5018415;28;20033;-74
2024/02/02 00:06:48;;;;;;;9.50;4.80;;;;;;;6.24;45.95;102811.31;5036257;28;20053;-74
2024/02/02 00:09:16;;;;;;;8.45;4.35;;;;;;;6.24;45.74;102816.75;5018764;28;20092;-73
2024/02/02 00:11:45;;;;;;;13.45;5.80;;;;;;;6.26;45.91;102820.28;5018739;28;20042;-73
2024/02/02 00:14:13;;;;;;;8.35;4.20;;;;;;;6.25;45.82;102810.38;5019190;28;20042;-74
2024/02/02 00:16:41;;;;;;;8.40;4.38;;;;;;;6.26;45.68;102802.16;5021110;28;20065;-73
2024/02/02 00:19:10;;;;;;;8.82;4.13;;;;;;;6.26;45.54;102801.25;5020275;28;21642;-74
2024/02/02 00:21:41;;;;;;;9.38;4.53;;;;;;;6.28;46.05;102808.38;5018488;28;20132;-74
2024/02/02 00:24:09;;;;;;;9.77;4.60;;;;;;;6.28;45.72;102797.50;5021325;28;20056;-75
2024/02/02 00:26:37;;;;;;;7.95;4.20;;;;;;;6.27;45.57;102790.34;5018197;28;20124;-75
2024/02/02 00:29:05;;;;;;;8.35;4.63;;;;;;;6.26;45.66;102801.25;5018816;28;20438;-74
2024/02/02 00:31:33;;;;;;;10.10;4.82;;;;;;;6.25;45.48;102802.19;5019286;28;20125;-75
2024/02/02 00:34:01;;;;;;;10.27;4.30;;;;;;;6.25;45.64;102796.75;5018751;28;20042;-74
2024/02/02 00:36:29;;;;;;;10.63;4.38;;;;;;;6.24;45.62;102781.41;5013933;28;20042;-74
2024/02/02 00:38:59;;;;;;;10.55;4.57;;;;;;;6.22;45.50;102788.72;5020726;28;20042;-74
2024/02/02 00:41:27;;;;;;;11.75;5.20;;;;;;;6.18;45.53;102782.53;5017637;28;20061;-75
2024/02/02 00:43:55;;;;;;;10.15;4.82;;;;;;;6.16;45.60;102765.38;5017337;28;20061;-75
2024/02/02 00:46:23;;;;;;;10.60;4.47;;;;;;;6.14;45.54;102759.13;5031346;28;20041;-75
2024/02/02 00:48:51;;;;;;;8.25;4.55;;;;;;;6.12;45.68;102749.25;5021019;28;20045;-74
2024/02/02 00:51:19;;;;;;;9.77;4.75;;;;;;;6.10;45.63;102743.88;5019529;28;20033;-74
2024/02/02 00:53:47;;;;;;;9.55;5.03;;;;;;;6.11;45.71;102758.38;5017806;28;20274;-74
2024/02/02 00:56:17;;;;;;;10.48;4.70;;;;;;;6.11;45.84;102758.38;5016353;28;20801;-74
2024/02/02 00:58:45;;;;;;;12.57;4.47;;;;;;;6.11;45.90;102752.94;5019847;28;20073;-75
2024/02/02 01:01:13;;;;;;;9.57;5.22;;;;;;;6.11;46.00;102755.66;5018778;28;20128;-75
2024/02/02 01:03:41;;;;;;;8.95;4.65;;;;;;;6.12;45.76;102765.56;5020169;28;20073;-74
2024/02/02 01:06:09;;;;;;;12.48;4.50;;;;;;;6.12;45.84;102763.72;5033670;28;20041;-75
2024/02/02 01:08:37;;;;;;;9.60;4.82;;;;;;;6.12;46.17;102771.88;5019364;28;20042;-75
2024/02/02 01:11:06;;;;;;;9.95;4.55;;;;;;;6.12;45.96;102758.28;5022103;28;20033;-75
2024/02/02 01:13:38;;;;;;;9.88;4.07;;;;;;;6.13;46.07;102761.88;5015684;28;20049;-75
2024/02/02 01:16:07;;;;;;;10.38;4.63;;;;;;;6.12;46.17;102758.28;5019165;28;20125;-75
2024/02/02 01:18:36;;;;;;;8.60;4.05;;;;;;;6.12;46.05;102744.69;5019592;28;20048;-75
2024/02/02 01:21:05;;;;;;;9.65;4.18;;;;;;;6.14;46.19;102733.75;5021712;28;20053;-75
2024/02/02 01:23:32;;;;;;;7.75;3.95;;;;;;;6.15;45.95;102730.09;5018994;28;20052;-74
2024/02/02 01:26:00;;;;;;;10.70;4.45;;;;;;;6.15;45.97;102724.66;5016257;28;20141;-74
2024/02/02 01:28:29;;;;;;;8.38;4.18;;;;;;;6.15;45.84;102724.66;5019791;28;20062;-75
2024/02/02 01:30:59;;;;;;;9.57;4.00;;;;;;;6.18;46.30;102724.56;5019059;28;20053;-75
2024/02/02 01:33:27;;;;;;;7.63;3.90;;;;;;;6.18;46.16;102724.56;5018295;28;20125;-74
2024/02/02 01:35:55;;;;;;;8.82;3.83;;;;;;;6.19;46.22;102720.88;5019466;28;20116;-75
2024/02/02 01:38:23;;;;;;;10.00;4.40;;;;;;;6.19;45.85;102723.59;5018556;28;20096;-74
2024/02/02 01:40:51;;;;;;;13.35;4.68;;;;;;;6.20;45.77;102730.81;5025768;28;20366;-75
2024/02/02 01:43:21;;;;;;;9.88;4.95;;;;;;;6.20;45.97;102734.41;5022129;28;20064;-75
2024/02/02 01:45:49;;;;;;;8.13;4.00;;;;;;;6.22;46.23;102731.63;5020850;28;20115;-76
2024/02/02 01:48:18;;;;;;;9.90;4.10;;;;;;;6.23;46.04;102731.56;5024403;28;20042;-74
2024/02/02 01:50:47;;;;;;;9.65;4.15;;;;;;;6.23;46.19;102723.41;5021751;28;20053;-74
2024/02/02 01:53:15;;;;;;;9.52;3.83;;;;;;;6.24;46.26;102716.13;5037733;28;20044;-76
2024/02/02 01:55:43;;;;;;;8.77;4.00;;;;;;;6.25;46.26;102717.91;5026913;28;20128;-75
2024/02/02 01:58:11;;;;;;;7.30;3.88;;;;;;;6.26;45.96;102714.25;5023959;28;20033;-75
2024/02/02 02:00:39;;;;;;;8.30;3.85;;;;;;;6.27;46.19;102707.88;5035234;28;20565;-74
2024/02/02 02:03:08;;;;;;;12.50;4.70;;;;;;;6.27;46.14;102708.75;5021565;28;20604;-74
2024/02/02 02:05:38;;;;;;;10.15;4.20;;;;;;;6.29;46.15;102717.72;5035604;28;20047;-74
2024/02/02 02:08:07;;;;;;;8.82;3.83;;;;;;;6.29;46.09;102715.00;5022704;28;20430;-75
2024/02/02 02:10:35;;;;;;;8.30;4.22;;;;;;;6.29;46.29;102723.16;5022896;28;20501;-75
2024/02/02 02:13:04;;;;;;;9.00;3.78;;;;;;;6.30;45.87;102714.06;5019472;28;20107;-74
2024/02/02 02:15:32;;;;;;;11.43;5.35;;;;;;;6.29;46.14;102693.25;5021375;28;20453;-74
2024/02/02 02:18:00;;;;;;;9.13;4.40;;;;;;;6.30;45.85;102691.41;5023756;28;20050;-73
2024/02/02 02:20:30;;;;;;;10.43;4.07;;;;;;;6.31;46.21;102682.31;5023445;28;20049;-74
2024/02/02 02:23:00;;;;;;;8.98;3.75;;;;;;;6.31;46.08;102687.75;5019694;28;20497;-74
2024/02/02 02:25:29;;;;;;;8.77;4.10;;;;;;;6.31;46.05;102695.91;5022371;28;20041;-74
2024/02/02 02:27:57;;;;;;;9.65;4.80;;;;;;;6.30;46.28;102703.19;5020850;28;20474;-75
2024/02/02 02:30:25;;;;;;;12.48;4.30;;;;;;;6.30;46.30;102710.44;5022299;28;20053;-74
2024/02/02 02:32:53;;;;;;;8.13;4.10;;;;;;;6.30;46.07;102697.75;5021719;28;21502;-74
2024/02/02 02:35:21;;;;;;;11.13;4.70;;;;;;;6.30;46.25;102695.03;5019319;28;20045;-75
2024/02/02 02:37:49;;;;;;;10.00;4.25;;;;;;;6.31;46.22;102695.91;5020900;28;20108;-75
2024/02/02 02:40:18;;;;;;;8.63;3.95;;;;;;;6.32;46.15;102686.81;5023897;28;20041;-74
2024/02/02 02:42:47;;;;;;;10.32;4.10;;;;;;;6.31;46.50;102690.47;5023547;28;20354;-75
2024/02/02 02:45:15;;;;;;;10.57;4.35;;;;;;;6.32;46.05;102676.81;5021830;28;20046;-74
2024/02/02 02:47:43;;;;;;;9.07;4.15;;;;;;;6.31;46.24;102677.75;5019436;28;20588;-74
2024/02/02 02:50:11;;;;;;;9.93;4.20;;;;;;;6.33;46.40;102669.53;5024642;28;20427;-74
2024/02/02 02:52:39;;;;;;;9.13;4.13;;;;;;;6.33;46.35;102655.94;5024490;28;20045;-74
2024/02/02 02:55:08;;;;;;;11.75;4.72;;;;;;;6.33;46.42;102653.22;5020680;28;20498;-75
2024/02/02 02:57:37;;;;;;;12.40;4.25;;;;;;;6.35;46.38;102671.25;5025248;28;20099;-75
2024/02/02 03:00:09;;;;;;;8.98;4.13;;;;;;;6.34;46.42;102674.94;5020847;28;20045;-75
2024/02/02 03:02:37;;;;;;;11.13;4.30;;;;;;;6.34;46.42;102671.31;5018094;28;20038;-75
2024/02/02 03:05:06;;;;;;;10.85;4.50;;;;;;;6.36;46.64;102674.88;5021182;28;20505;-74
2024/02/02 03:07:34;;;;;;;8.18;4.10;;;;;;;6.35;46.45;102668.53;5038796;28;20049;-75
2024/02/02 03:10:03;;;;;;;8.77;4.25;;;;;;;6.36;46.64;102667.59;5026356;28;20046;-75
2024/02/02 03:12:31;;;;;;;9.40;4.18;;;;;;;6.37;46.88;102665.72;5021275;28;20486;-75
2024/02/02 03:15:01;;;;;;;11.55;4.85;;;;;;;6.39;46.51;102663.84;5021075;28;20042;-75
2024/02/02 03:17:31;;;;;;;10.68;4.47;;;;;;;6.38;46.39;102683.81;5022614;28;20037;-74
2024/02/02 03:19:59;;;;;;;10.85;4.60;;;;;;;6.38;46.34;102686.53;5022051;28;20037;-75
2024/02/02 03:22:28;;;;;;;12.48;4.53;;;;;;;6.39;46.38;102702.81;5020956;28;20042;-74
2024/02/02 03:24:55;;;;;;;11.95;4.57;;;;;;;6.38;46.55;102690.16;5024482;28;20140;-74
2024/02/02 03:27:23;;;;;;;10.65;3.88;;;;;;;6.40;46.59;102690.09;5023106;28;20091;-75
2024/02/02 03:29:51;;;;;;;8.80;4.28;;;;;;;6.39;46.72;102689.22;5020379;28;20056;-74
2024/02/02 03:32:21;;;;;;;9.27;4.43;;;;;;;6.41;46.60;102697.31;5020010;28;20119;-75
2024/02/02 03:34:54;;;;;;;8.88;4.10;;;;;;;6.42;46.71;102712.69;5036012;28;20073;-74
2024/02/02 03:37:22;;;;;;;12.48;4.30;;;;;;;6.40;46.65;102709.13;5020587;28;20038;-75
2024/02/02 03:39:51;;;;;;;11.75;4.32;;;;;;;6.40;46.42;102682.81;5023406;28;20080;-74
2024/02/02 03:42:19;;;;;;;10.57;4.40;;;;;;;6.41;46.56;102676.44;5036963;28;20049;-74
2024/02/02 03:44:47;;;;;;;9.23;3.97;;;;;;;6.41;46.56;102676.44;5025193;28;20059;-74
2024/02/02 03:47:15;;;;;;;10.23;3.88;;;;;;;6.42;46.82;102661.00;5023225;28;20045;-74
2024/02/02 03:49:44;;;;;;;9.73;4.22;;;;;;;6.44;46.69;102653.69;5017966;28;20716;-74
2024/02/02 03:52:12;;;;;;;10.80;4.45;;;;;;;6.43;46.81;102654.63;5020592;28;20043;-75
2024/02/02 03:54:41;;;;;;;9.88;3.92;;;;;;;6.42;46.56;102656.47;5020966;28;20543;-75
2024/02/02 03:57:13;;;;;;;7.93;3.85;;;;;;;6.43;46.71;102666.38;5034240;28;20049;-75
2024/02/02 03:59:41;;;;;;;10.03;3.67;;;;;;;6.41;46.71;102667.41;5022197;28;20560;-75
2024/02/02 04:02:09;;;;;;;10.20;3.80;;;;;;;6.43;46.64;102651.91;5021480;28;20045;-75
2024/02/02 04:04:37;;;;;;;10.88;3.80;;;;;;;6.44;46.56;102661.84;5034019;28;20053;-74
2024/02/02 04:07:06;;;;;;;9.10;3.50;;;;;;;6.45;46.49;102649.97;5023613;28;20069;-75
2024/02/02 04:09:34;;;;;;;10.85;3.50;;;;;;;6.44;46.57;102648.25;5022176;28;20112;-75
2024/02/02 04:12:03;;;;;;;8.02;3.20;;;;;;;6.44;46.85;102645.53;5019460;28;20033;-74
2024/02/02 04:14:31;;;;;;;8.45;3.55;;;;;;;6.45;46.42;102644.53;5022792;28;20049;-74
2024/02/02 04:16:59;;;;;;;8.18;3.25;;;;;;;6.43;46.59;102646.47;5022518;28;20046;-74
2024/02/02 04:19:27;;;;;;;8.43;3.72;;;;;;;6.43;46.78;102638.31;5021969;28;20049;-74
2024/02/02 04:21:56;;;;;;;7.30;3.80;;;;;;;6.44;46.48;102650.97;5022014;28;20033;-75
2024/02/02 04:24:26;;;;;;;12.13;4.07;;;;;;;6.45;46.71;102652.69;5037830;28;20041;-74
2024/02/02 04:26:54;;;;;;;10.38;3.67;;;;;;;6.42;46.50;102648.31;5023927;28;20107;-75
2024/02/02 04:29:22;;;;;;;9.07;3.42;;;;;;;6.43;46.73;102644.63;5037099;28;20145;-75
2024/02/02 04:31:50;;;;;;;6.78;3.25;;;;;;;6.42;46.53;102641.97;5031131;28;20056;-75
2024/02/02 04:34:18;;;;;;;6.88;3.10;;;;;;;6.42;46.44;102641.97;5023449;28;21347;-75
2024/02/02 04:36:46;;;;;;;9.65;3.15;;;;;;;6.42;46.46;102639.25;5022425;28;20096;-74
2024/02/02 04:39:14;;;;;;;9.30;3.50;;;;;;;6.41;46.68;102646.53;5019439;28;20144;-75
2024/02/02 04:41:43;;;;;;;8.52;3.50;;;;;;;6.43;46.38;102638.31;5019594;28;20408;-74
2024/02/02 04:44:11;;;;;;;10.20;4.28;;;;;;;6.41;46.67;102635.66;5020197;28;20041;-74
2024/02/02 04:46:39;;;;;;;9.30;3.72;;;;;;;6.42;46.66;102636.53;5024265;28;20503;-75
2024/02/02 04:49:07;;;;;;;10.18;4.63;;;;;;;6.42;46.43;102639.25;5015851;28;20662;-74
2024/02/02 04:51:36;;;;;;;9.88;3.80;;;;;;;6.42;46.49;102642.84;5021042;28;20056;-75
2024/02/02 04:54:04;;;;;;;9.82;3.20;;;;;;;6.42;46.27;102652.84;5022878;28;20045;-75
2024/02/02 04:56:35;;;;;;;9.43;3.13;;;;;;;6.42;46.45;102647.41;5019118;28;20097;-74
2024/02/02 04:59:05;;;;;;;10.82;3.67;;;;;;;6.44;46.35;102659.13;5020135;28;20053;-74
2024/02/02 05:01:34;;;;;;;11.18;3.75;;;;;;;6.44;46.64;102654.56;5017381;28;20053;-75
2024/02/02 05:04:02;;;;;;;10.98;3.63;;;;;;;6.43;46.57;102638.31;5022058;28;20680;-74
2024/02/02 05:06:31;;;;;;;9.02;4.05;;;;;;;6.44;46.50;102653.69;5019014;28;20148;-75
2024/02/02 05:08:59;;;;;;;9.48;3.50;;;;;;;6.44;46.20;102654.56;5016035;28;20094;-74
2024/02/02 05:11:27;;;;;;;8.80;3.80;;;;;;;6.45;46.42;102644.53;5021103;28;20054;-75
2024/02/02 05:13:55;;;;;;;9.35;3.58;;;;;;;6.44;46.18;102643.69;5019517;28;20079;-74
2024/02/02 05:16:24;;;;;;;13.80;4.22;;;;;;;6.46;46.69;102640.88;5020959;28;20504;-75
2024/02/02 05:18:55;;;;;;;9.60;3.65;;;;;;;6.44;46.64;102640.97;5017571;28;20049;-75
2024/02/02 05:21:23;;;;;;;11.98;3.65;;;;;;;6.44;46.54;102640.09;5023441;28;20854;-75
2024/02/02 05:23:52;;;;;;;11.55;4.47;;;;;;;6.45;46.48;102641.81;5020630;28;20064;-74
2024/02/02 05:26:21;;;;;;;9.35;4.93;;;;;;;6.45;46.75;102634.56;5019348;28;20076;-74
2024/02/02 05:29:44;;;;;;;13.32;5.15;;;;;;;6.47;46.82;102628.16;5115837;22;20049;-76
2024/02/02 05:32:14;;;;;;;12.23;4.30;;;;;;;6.42;46.85;102620.22;5037341;28;20581;-76
2024/02/02 05:34:42;;;;;;;12.18;5.15;;;;;;;6.44;46.41;102621.94;5061801;28;20515;-76
2024/02/02 05:37:11;;;;;;;9.32;4.50;;;;;;;6.44;46.47;102613.78;5054294;28;20435;-77
2024/02/02 05:39:39;;;;;;;9.80;4.85;;;;;;;6.42;46.26;102612.94;5046733;28;20041;-75
2024/02/02 05:42:07;;;;;;;12.52;5.18;;;;;;;6.42;46.52;102603.91;5031834;28;20176;-76
2024/02/02 05:44:36;;;;;;;14.38;5.15;;;;;;;6.43;46.29;102597.50;5032131;28;20415;-75
2024/02/02 05:47:07;;;;;;;12.93;4.88;;;;;;;6.43;46.27;102592.06;5032416;28;20135;-75
2024/02/02 05:49:37;;;;;;;11.43;4.47;;;;;;;6.42;46.39;102606.63;5032212;28;20099;-76
2024/02/02 05:52:06;;;;;;;11.75;5.32;;;;;;;6.40;46.53;102601.22;5041127;28;20462;-76
2024/02/02 05:54:35;;;;;;;10.68;4.95;;;;;;;6.40;46.47;102594.91;5051840;28;20573;-75
2024/02/02 05:57:03;;;;;;;12.40;4.97;;;;;;;6.41;46.38;102591.25;5051716;28;20045;-75
2024/02/02 05:59:31;;;;;;;12.30;4.63;;;;;;;6.40;46.39;102589.47;5049113;28;20041;-76
2024/02/02 06:01:59;;;;;;;14.52;6.40;;;;;;;6.39;46.31;102594.03;5050298;28;20068;-76
2024/02/02 06:04:27;;;;;;;11.27;5.55;;;;;;;6.39;46.59;102580.44;5032139;28;20123;-76
2024/02/02 06:06:57;;;;;;;13.90;5.75;;;;;;;6.41;46.31;102588.53;5038320;28;20055;-76
2024/02/02 06:09:25;;;;;;;10.68;5.07;;;;;;;6.39;46.26;102582.25;5047243;28;20041;-76
2024/02/02 06:11:53;;;;;;;11.43;5.10;;;;;;;6.39;46.50;102590.41;5052090;28;20057;-76
2024/02/02 06:14:25;;;;;;;16.85;6.38;;;;;;;6.38;46.46;102591.38;5051924;28;20041;-76
2024/02/02 06:16:53;;;;;;;15.25;6.35;;;;;;;6.38;46.47;102580.47;5048309;28;20103;-73
2024/02/02 06:19:21;;;;;;;11.75;5.05;;;;;;;6.38;46.21;102580.47;5057284;28;20033;-75
2024/02/02 06:21:50;;;;;;;10.50;5.38;;;;;;;6.38;46.17;102569.59;5031183;28;20483;-75
2024/02/02 06:24:19;;;;;;;12.30;5.47;;;;;;;6.37;46.02;102560.56;5034626;28;20090;-75
2024/02/02 06:26:47;;;;;;;10.88;4.13;;;;;;;6.36;46.12;102550.66;5031911;28;20049;-75
2024/02/02 06:29:16;;;;;;;11.52;5.30;;;;;;;6.34;46.08;102551.66;5033961;28;20515;-75
2024/02/02 06:31:45;;;;;;;10.05;4.63;;;;;;;6.34;46.28;102547.13;5056539;28;20499;-76
2024/02/02 06:34:13;;;;;;;9.55;4.25;;;;;;;6.34;46.12;102548.94;5039347;28;20072;-76
2024/02/02 06:36:42;;;;;;;11.27;5.00;;;;;;;6.33;46.06;102541.75;5031823;28;20045;-76
2024/02/02 06:39:10;;;;;;;11.10;4.38;;;;;;;6.32;45.77;102543.56;5045511;28;20455;-75
2024/02/02 06:41:40;;;;;;;8.32;4.20;;;;;;;6.33;46.14;102552.63;5033800;28;20045;-76
2024/02/02 06:44:08;;;;;;;10.05;3.92;;;;;;;6.31;46.19;102557.22;5056108;28;20049;-75
2024/02/02 06:46:36;;;;;;;13.07;4.40;;;;;;;6.30;46.08;102561.78;5030833;28;20051;-75
2024/02/02 06:49:04;;;;;;;11.30;4.85;;;;;;;6.30;46.09;102558.19;5033954;28;20136;-76
2024/02/02 06:51:32;;;;;;;9.35;3.67;;;;;;;6.28;45.74;102560.94;5051142;28;20037;-76
2024/02/02 06:54:00;;;;;;;8.00;3.63;;;;;;;6.29;46.08;102553.69;5034054;28;20503;-76
2024/02/02 06:56:35;;;;;;;9.43;4.18;;;;;;;6.29;45.85;102551.84;5032651;28;20590;-75
2024/02/02 06:59:05;;;;;;;10.98;4.40;;;;;;;6.29;46.01;102550.97;5031348;28;20065;-76
2024/02/02 07:01:33;;;;;;;8.15;3.35;;;;;;;6.27;46.09;102547.44;5041181;28;20119;-75
2024/02/02 07:04:02;;;;;;;7.90;3.17;;;;;;;6.28;45.96;102550.06;5045098;28;20044;-76
2024/02/02 07:06:32;;;;;;;7.35;3.20;;;;;;;6.27;45.88;102548.34;5034873;28;20124;-75
2024/02/02 07:09:06;;;;;;;10.30;3.60;;;;;;;6.28;45.81;102549.22;5049738;28;20040;-76
2024/02/02 07:11:58;;;;;;;9.68;3.60;;;;;;;6.26;45.59;102551.13;5046836;28;20130;-75
2024/02/02 07:14:45;;;;;;;11.27;4.67;;;;;;;6.25;45.49;102543.91;5039813;28;20052;-74
2024/02/02 07:17:34;;;;;;;8.00;3.55;;;;;;;6.25;45.37;102535.75;5031700;28;20136;-75
2024/02/02 07:20:08;;;;;;;9.40;4.13;;;;;;;6.24;45.50;102543.00;5055714;28;20067;-75
2024/02/02 07:22:41;;;;;;;9.50;3.60;;;;;;;6.23;45.45;102546.69;5055180;28;20129;-72
2024/02/02 07:25:13;;;;;;;9.98;3.22;;;;;;;6.23;45.63;102552.13;5050700;28;20053;-76
2024/02/02 07:27:54;;;;;;;6.80;3.47;;;;;;;6.25;45.24;102550.22;5049503;28;20053;-75
2024/02/02 07:30:54;;;;;;;9.20;3.28;;;;;;;6.21;45.14;102558.56;5031485;28;20400;-74
2024/02/02 07:33:25;;;;;;;8.52;2.85;;;;;;;6.22;45.41;102553.06;5032179;28;20041;-75
2024/02/02 07:35:58;;;;;;;9.38;3.10;;;;;;;6.22;45.41;102553.06;5047450;28;20103;-75
2024/02/02 07:38:43;;;;;;;7.30;2.47;;;;;;;6.21;45.11;102559.44;5040626;28;20038;-75
2024/02/02 07:41:13;;;;;;;7.65;2.88;;;;;;;6.21;45.55;102562.16;5049237;28;20112;-76
2024/02/02 07:43:41;;;;;;;8.35;2.67;;;;;;;6.21;45.25;102556.72;5032752;28;20481;-76
2024/02/02 07:46:11;;;;;;;8.50;2.85;;;;;;;6.23;45.36;102556.66;5030510;28;20475;-75
2024/02/02 07:48:43;;;;;;;9.45;2.70;;;;;;;6.22;45.14;102566.66;5032827;28;20037;-75
2024/02/02 07:51:12;;;;;;;7.95;3.15;;;;;;;6.23;45.53;102575.69;5032175;28;20412;-76
2024/02/02 07:53:40;;;;;;;9.48;3.30;;;;;;;6.23;45.47;102567.53;5031004;28;20068;-76
2024/02/02 07:56:09;;;;;;;8.07;2.80;;;;;;;6.23;45.25;102568.44;5029262;28;20396;-76
2024/02/02 07:58:37;;;;;;;7.28;2.70;;;;;;;6.23;45.46;102564.81;5046731;28;20045;-76
2024/02/02 08:01:06;;;;;;;7.18;3.40;;;;;;;6.23;45.36;102571.16;5041166;28;20103;-76
2024/02/02 08:03:37;;;;;;;9.93;2.78;;;;;;;6.26;45.52;102565.59;5031779;28;20128;-76
2024/02/02 08:06:06;;;;;;;8.52;2.80;;;;;;;6.26;45.43;102573.75;5042173;28;20037;-76
2024/02/02 08:08:35;;;;;;;10.48;3.08;;;;;;;6.27;45.44;102569.19;5027899;28;20047;-75
2024/02/02 08:11:04;;;;;;;6.53;2.63;;;;;;;6.28;45.11;102573.69;5023568;28;20141;-76
2024/02/02 08:13:32;;;;;;;9.35;3.08;;;;;;;6.29;45.23;102560.00;5044180;28;20041;-76
2024/02/02 08:16:01;;;;;;;6.50;2.53;;;;;;;6.31;45.47;102560.84;5029268;28;20058;-76
2024/02/02 08:18:29;;;;;;;8.02;2.75;;;;;;;6.32;45.42;102556.28;5030267;28;20459;-76
2024/02/02 08:21:00;;;;;;;6.63;2.60;;;;;;;6.35;45.25;102553.44;5023407;28;20037;-76
2024/02/02 08:23:29;;;;;;;8.85;3.15;;;;;;;6.35;44.88;102559.78;5043438;28;20444;-76
2024/02/02 08:25:57;;;;;;;9.75;2.78;;;;;;;6.36;45.02;102544.34;5047287;28;20037;-74
2024/02/02 08:28:25;;;;;;;5.95;2.33;;;;;;;6.39;45.02;102545.06;5046856;28;20119;-76
2024/02/02 08:30:54;;;;;;;6.43;2.25;;;;;;;6.40;44.95;102545.97;5026161;28;20041;-76
2024/02/02 08:33:22;;;;;;;9.02;2.75;;;;;;;6.42;44.83;102544.94;5025074;28;20052;-76
2024/02/02 08:35:50;;;;;;;6.30;2.33;;;;;;;6.45;44.82;102542.06;5029770;28;20048;-76
2024/02/02 08:38:20;;;;;;;7.18;2.97;;;;;;;6.48;44.44;102543.78;5041592;28;20482;-76
2024/02/02 08:40:49;;;;;;;7.30;2.95;;;;;;;6.48;44.64;102546.50;5048327;28;20049;-76
2024/02/02 08:43:19;;;;;;;5.20;2.53;;;;;;;6.51;44.44;102540.06;5043928;28;20545;-76
2024/02/02 08:46:19;;;;;;;7.78;2.90;;;;;;;6.51;43.81;102535.50;5025604;28;20125;-75
2024/02/02 08:48:48;;;;;;;6.35;2.58;;;;;;;6.53;44.30;102552.63;5043605;28;20049;-76
2024/02/02 08:51:49;;;;;;;6.95;2.53;;;;;;;6.52;43.78;102553.59;5028306;28;20083;-76
2024/02/02 08:54:37;;;;;;;5.78;2.50;;;;;;;6.57;43.78;102548.81;5043575;28;20033;-76
2024/02/02 08:57:34;;;;;;;6.38;2.30;;;;;;;6.55;43.68;102542.56;5031161;28;20041;-76
2024/02/02 09:00:13;;;;;;;7.88;2.40;;;;;;;6.60;43.31;102529.66;5043605;28;20045;-75
2024/02/02 09:03:23;;;;;;;6.47;2.25;;;;;;;6.59;43.45;102527.00;5036820;28;20092;-76
2024/02/02 09:05:54;;;;;;;7.05;2.22;;;;;;;6.60;44.26;102526.94;5039893;28;20105;-76
2024/02/02 09:08:41;;;;;;;11.50;2.78;;;;;;;6.65;43.42;102524.88;5030462;28;20049;-76
2024/02/02 09:11:18;;;;;;;6.35;2.35;;;;;;;6.70;43.63;102530.09;5048099;28;20037;-75
2024/02/02 09:13:47;;;;;;;7.93;2.28;;;;;;;6.71;44.31;102526.44;5038033;28;20044;-76
2024/02/02 09:16:17;;;;;;;7.30;2.15;;;;;;;6.75;44.33;102534.44;5039853;28;20033;-76
2024/02/02 09:18:54;;;;;;;7.00;2.22;;;;;;;6.78;44.43;102515.25;5033006;28;20056;-76
2024/02/02 09:21:33;;;;;;;7.50;2.63;;;;;;;6.83;43.55;102523.22;5032202;28;20087;-75
2024/02/02 09:24:03;;;;;;;6.35;2.47;;;;;;;6.85;44.04;102524.03;5031054;28;20131;-74
2024/02/02 09:26:37;;;;;;;5.15;2.20;;;;;;;6.90;43.62;102521.97;5024725;28;20068;-75
2024/02/02 09:29:06;;;;;;;7.57;2.40;;;;;;;6.93;44.11;102526.41;5024932;28;20040;-75
2024/02/02 09:31:37;;;;;;;8.07;2.45;;;;;;;6.96;44.02;102512.63;5048163;28;20122;-75
2024/02/02 09:34:08;;;;;;;8.43;2.60;;;;;;;7.00;43.94;102515.16;5046153;28;20400;-75
2024/02/02 09:36:38;;;;;;;7.85;2.60;;;;;;;7.02;43.85;102515.09;5047011;28;20037;-75
2024/02/02 09:39:24;;;;;;;6.25;2.05;;;;;;;7.07;43.61;102513.91;5046777;28;20045;-75
2024/02/02 09:42:17;;;;;;;6.25;2.00;;;;;;;7.10;43.00;102524.69;5029571;28;20131;-74
2024/02/02 09:44:51;;;;;;;6.65;2.33;;;;;;;7.10;43.29;102523.78;5046479;28;20524;-75
2024/02/02 09:47:46;;;;;;;7.20;1.95;;;;;;;7.16;42.96;102526.22;5024638;28;20539;-75
2024/02/02 09:50:27;;;;;;;6.30;2.20;;;;;;;7.18;43.07;102530.66;5031458;28;20037;-75
2024/02/02 09:53:24;;;;;;;6.53;2.20;;;;;;;7.18;42.96;102532.47;5030024;28;20056;-75
2024/02/02 09:55:59;;;;;;;6.72;2.30;;;;;;;7.24;43.44;102529.47;5046717;28;20923;-75
2024/02/02 09:58:37;;;;;;;7.95;3.10;;;;;;;7.26;43.17;102518.50;5045190;28;20508;-75
2024/02/02 10:01:15;;;;;;;7.80;2.15;;;;;;;7.29;43.35;102523.78;5029248;28;20095;-75
2024/02/02 10:03:56;;;;;;;7.65;2.67;;;;;;;7.32;43.36;102523.66;5048785;28;20431;-75
2024/02/02 10:06:34;;;;;;;8.27;2.25;;;;;;;7.33;43.58;102526.31;5028110;28;20554;-75
2024/02/02 10:09:19;;;;;;;7.85;2.80;;;;;;;7.35;43.15;102524.41;5033879;28;20063;-75
2024/02/02 10:12:02;;;;;;;6.65;2.13;;;;;;;7.37;43.38;102525.19;5045747;28;20053;-75
2024/02/02 10:14:58;;;;;;;7.63;2.40;;;;;;;7.38;43.26;102521.50;5027805;28;20041;-75
2024/02/02 10:17:42;;;;;;;8.13;2.42;;;;;;;7.42;43.58;102539.50;5050276;28;20377;-74
2024/02/02 10:20:21;;;;;;;6.30;2.58;;;;;;;7.44;43.35;102521.22;5029990;28;20045;-75
2024/02/02 10:23:09;;;;;;;6.38;2.25;;;;;;;7.50;43.33;102520.06;5030839;28;20618;-75
2024/02/02 10:25:52;;;;;;;6.07;2.13;;;;;;;7.53;43.37;102525.31;5028921;28;20041;-75
2024/02/02 10:28:32;;;;;;;6.72;2.40;;;;;;;7.55;43.71;102528.88;5033466;28;20076;-74
2024/02/02 10:31:17;;;;;;;7.32;2.42;;;;;;;7.59;43.45;102527.78;5028856;28;20037;-75
2024/02/02 10:34:01;;;;;;;6.72;2.50;;;;;;;7.62;43.60;102533.06;5030344;28;20053;-75
2024/02/02 10:36:41;;;;;;;7.40;2.42;;;;;;;7.68;43.87;102534.63;5045939;28;20029;-75
2024/02/02 10:39:22;;;;;;;8.32;2.60;;;;;;;7.72;43.33;102528.03;5047380;28;20535;-75
2024/02/02 10:42:18;;;;;;;8.27;2.53;;;;;;;7.71;43.28;102513.53;5045068;28;20049;-75
2024/02/02 10:44:57;;;;;;;7.22;2.30;;;;;;;7.78;43.78;102515.00;5047024;28;20526;-75
2024/02/02 10:47:41;;;;;;;5.20;2.60;;;;;;;7.83;43.34;102515.66;5026480;28;20437;-75
2024/02/02 10:50:20;;;;;;;8.18;2.70;;;;;;;7.87;43.58;102514.53;5024227;28;20037;-76
2024/02/02 10:53:03;;;;;;;6.15;2.30;;;;;;;7.90;43.14;102517.13;5025496;28;20132;-75
2024/02/02 10:55:48;;;;;;;8.45;3.10;;;;;;;7.93;43.20;102518.78;5044483;28;20102;-75
2024/02/02 10:58:29;;;;;;;9.65;2.40;;;;;;;7.99;43.53;102507.59;5043607;28;20076;-76
2024/02/02 11:01:07;;;;;;;6.88;2.53;;;;;;;8.02;43.57;102499.25;5046793;28;20251;-75
2024/02/02 11:03:44;;;;;;;6.00;2.33;;;;;;;8.06;43.51;102500.88;5042815;28;20041;-75
2024/02/02 11:06:22;;;;;;;6.75;2.50;;;;;;;8.10;43.41;102493.41;5046919;28;20522;-75
2024/02/02 11:08:57;;;;;;;6.82;2.58;;;;;;;8.13;43.54;102491.44;5030629;28;20049;-75
2024/02/02 11:11:28;;;;;;;8.18;3.05;;;;;;;8.18;43.76;102491.19;5036551;28;20412;-75
2024/02/02 11:14:05;;;;;;;5.93;2.28;;;;;;;8.24;43.68;102489.06;5044773;28;20123;-74
2024/02/02 11:16:53;;;;;;;9.35;2.80;;;;;;;8.26;43.07;102483.50;5034459;28;20032;-75
2024/02/02 11:19:40;;;;;;;6.10;3.10;;;;;;;8.33;43.50;102482.25;5040649;28;20052;-75
2024/02/02 11:22:19;;;;;;;6.20;2.60;;;;;;;8.37;43.49;102486.56;5046905;28;20042;-75
2024/02/02 11:24:58;;;;;;;8.48;2.92;;;;;;;8.40;43.63;102475.50;5054029;28;20057;-75
2024/02/02 11:27:32;;;;;;;6.20;2.70;;;;;;;8.45;43.49;102469.78;5044631;28;20048;-75
2024/02/02 11:30:05;;;;;;;6.68;2.75;;;;;;;8.49;43.49;102472.28;5053465;28;20033;-76
2024/02/02 11:33:13;;;;;;;7.18;3.10;;;;;;;8.53;43.07;102460.22;5033349;28;20041;-75
2024/02/02 11:35:56;;;;;;;8.25;2.70;;;;;;;8.56;43.15;102459.19;5031732;28;20045;-75
2024/02/02 11:38:29;;;;;;;;;;;;;;;8.32;44.32;102473.16;5049444;28;20041;-74
2024/02/02 11:40:58;;;;;;;7.28;2.70;;;;;;;8.56;43.80;102454.59;5046938;28;19921;-74
2024/02/02 11:43:28;;;;;;;6.47;3.03;;;;;;;8.65;43.64;102466.88;5064211;28;20040;-75
2024/02/02 11:45:57;;;;;;;6.53;2.88;;;;;;;8.67;43.70;102462.22;5031267;28;20405;-74
2024/02/02 11:48:32;;;;;;;7.15;2.85;;;;;;;8.71;43.47;102442.84;5058611;28;20033;-75
2024/02/02 11:51:03;;;;;;;7.68;2.90;;;;;;;8.72;43.87;102435.53;5045755;28;20527;-75
2024/02/02 11:53:37;;;;;;;6.63;2.70;;;;;;;8.75;43.58;102429.03;5043722;28;20040;-75
2024/02/02 11:56:11;;;;;;;8.13;3.28;;;;;;;8.76;43.49;102430.78;5047446;28;20045;-75